Time;durP1;ratioP1;P1;durP2;ratioP2;P2;SDS_P1;SDS_P2;PMS_P1;PMS_P2;Temp;Humidity;BMP_temperature;BMP_pressure;BME280_temperature;BME280_humidity;BME280_pressure;Samples;Min_cycle;Max_cycle;Signal;HPM_P1;HPM_P2
2022/06/25 02:28:30;;;;;;;11.90;7.18;;;;;;;;;;7319669;19;20782;-77
2022/06/25 02:30:56;;;;;;;14.03;8.37;;;;;;;;;;7357519;19;20010;-77
2022/06/25 02:33:21;;;;;;;13.88;8.13;;;;;;;;;;7368714;19;20228;-76
2022/06/25 02:35:46;;;;;;;11.17;7.80;;;;;;;;;;7369199;19;20388;-76
2022/06/25 02:38:12;;;;;;;12.25;8.00;;;;;;;;;;7359428;19;20022;-76
2022/06/25 02:40:37;;;;;;;12.07;7.55;;;;;;;;;;7369595;19;20474;-76
2022/06/25 02:43:02;;;;;;;13.75;8.20;;;;;;;;;;7368075;19;20400;-76
2022/06/25 02:45:28;;;;;;;14.23;8.40;;;;;;;;;;7370811;19;20599;-77
2022/06/25 02:47:54;;;;;;;12.48;8.13;;;;;;;;;;7377889;19;20490;-76
2022/06/25 02:50:20;;;;;;;11.95;8.75;;;;;;;;;;7371368;19;20015;-76
2022/06/25 02:52:45;;;;;;;14.10;7.80;;;;;;;;;;7368812;19;20445;-75
2022/06/25 02:55:10;;;;;;;16.85;7.07;;;;;;;;;;7366733;19;20006;-78
2022/06/25 03:00:20;;;;;;;10.48;7.53;;;;;;;;;;7382007;19;20226;-78
2022/06/25 03:02:45;;;;;;;11.32;7.32;;;;;;;;;;7379145;19;20006;-77
2022/06/25 03:05:10;;;;;;;15.65;7.65;;;;;;;;;;7369057;19;20366;-77
2022/06/25 03:07:35;;;;;;;12.13;8.40;;;;;;;;;;7378214;19;20044;-76
2022/06/25 03:10:00;;;;;;;15.50;7.70;;;;;;;;;;7370371;19;20003;-77
2022/06/25 03:12:26;;;;;;;11.32;7.35;;;;;;;;;;7375324;19;20239;-76
2022/06/25 03:14:51;;;;;;;14.23;7.35;;;;;;;;;;7365302;19;19998;-75
2022/06/25 03:17:16;;;;;;;14.37;8.03;;;;;;;;;;7372269;19;20007;-75
2022/06/25 03:19:42;;;;;;;13.20;7.13;;;;;;;;;;7374395;19;20235;-74
2022/06/25 03:22:07;;;;;;;19.23;10.77;;;;;;;;;;7374925;19;20022;-78
2022/06/25 03:24:32;;;;;;;14.07;9.27;;;;;;;;;;7364896;19;20007;-77
2022/06/25 03:26:57;;;;;;;15.97;7.93;;;;;;;;;;7378668;19;20956;-77
2022/06/25 03:29:22;;;;;;;9.85;6.40;;;;;;;;;;7380359;19;20708;-77
2022/06/25 03:31:48;;;;;;;12.93;6.10;;;;;;;;;;7377477;19;20511;-77
2022/06/25 03:34:13;;;;;;;10.57;5.82;;;;;;;;;;7375844;19;20021;-76
2022/06/25 03:36:38;;;;;;;13.48;6.25;;;;;;;;;;7378268;19;20025;-77
2022/06/25 03:39:04;;;;;;;9.27;5.60;;;;;;;;;;7369704;19;20364;-75
2022/06/25 03:41:38;;;;;;;9.35;4.82;;;;;;;;;;7377565;19;20243;-76
2022/06/25 03:44:03;;;;;;;12.40;5.50;;;;;;;;;;7380659;19;20026;-76
2022/06/25 03:46:29;;;;;;;13.77;6.17;;;;;;;;;;7378893;19;20010;-77
2022/06/25 03:48:55;;;;;;;8.98;5.63;;;;;;;;;;7375263;19;20050;-76
2022/06/25 03:51:20;;;;;;;12.85;5.78;;;;;;;;;;7379114;19;20486;-76
2022/06/25 03:53:45;;;;;;;12.07;5.50;;;;;;;;;;7378338;19;20454;-77
2022/06/25 03:56:11;;;;;;;9.03;5.40;;;;;;;;;;7376677;19;20251;-76
2022/06/25 03:58:37;;;;;;;15.27;6.00;;;;;;;;;;7379831;19;20256;-77
2022/06/25 04:01:02;;;;;;;8.30;5.67;;;;;;;;;;7379187;19;20024;-77
2022/06/25 04:03:27;;;;;;;8.10;5.20;;;;;;;;;;7376580;19;20274;-77
2022/06/25 04:05:52;;;;;;;13.48;5.97;;;;;;;;;;7370964;19;20558;-76
2022/06/25 04:08:17;;;;;;;11.27;6.50;;;;;;;;;;7379313;19;20877;-77
2022/06/25 04:10:43;;;;;;;9.85;6.78;;;;;;;;;;7374599;19;20014;-77
2022/06/25 04:13:08;;;;;;;9.50;6.32;;;;;;;;;;7380614;19;20013;-75
2022/06/25 04:15:34;;;;;;;11.15;6.40;;;;;;;;;;7379434;19;20503;-77
2022/06/25 04:17:59;;;;;;;13.10;6.72;;;;;;;;;;7370902;19;20015;-77
2022/06/25 04:20:24;;;;;;;11.07;5.40;;;;;;;;;;7374138;19;20007;-76
2022/06/25 04:22:49;;;;;;;12.27;6.13;;;;;;;;;;7379620;19;20010;-76
2022/06/25 04:25:15;;;;;;;9.23;5.00;;;;;;;;;;7375356;19;20014;-76
2022/06/25 04:30:23;;;;;;;10.63;5.80;;;;;;;;;;7377566;19;20809;-76
2022/06/25 04:32:49;;;;;;;14.07;5.30;;;;;;;;;;7375981;19;20014;-77
2022/06/25 04:35:14;;;;;;;12.87;4.57;;;;;;;;;;7375160;19;20243;-77
2022/06/25 04:37:39;;;;;;;10.43;4.72;;;;;;;;;;7375503;19;20255;-76
2022/06/25 04:40:05;;;;;;;8.50;3.97;;;;;;;;;;7372401;19;20002;-76
2022/06/25 04:42:30;;;;;;;8.68;4.55;;;;;;;;;;7374605;19;20014;-76
2022/06/25 04:44:55;;;;;;;8.77;4.70;;;;;;;;;;7379241;19;20102;-76
2022/06/25 04:47:20;;;;;;;10.87;5.20;;;;;;;;;;7375597;19;20379;-75
2022/06/25 04:49:45;;;;;;;11.37;5.03;;;;;;;;;;7375959;19;19998;-75
2022/06/25 04:52:10;;;;;;;9.27;4.70;;;;;;;;;;7377900;19;20429;-76
2022/06/25 04:54:36;;;;;;;9.70;4.80;;;;;;;;;;7375414;19;20545;-76
2022/06/25 04:57:02;;;;;;;10.73;5.20;;;;;;;;;;7374908;19;20706;-75
2022/06/25 04:59:27;;;;;;;9.68;4.82;;;;;;;;;;7377774;19;20011;-76
2022/06/25 05:01:53;;;;;;;14.30;5.60;;;;;;;;;;7377090;19;19999;-75
2022/06/25 05:04:19;;;;;;;8.13;4.78;;;;;;;;;;7374507;19;20522;-75
2022/06/25 05:06:44;;;;;;;5.87;3.30;;;;;;;;;;7373695;19;20027;-75
2022/06/25 05:09:09;;;;;;;8.00;3.93;;;;;;;;;;7373749;19;20291;-76
2022/06/25 05:11:34;;;;;;;12.23;3.90;;;;;;;;;;7377882;19;20562;-77
2022/06/25 05:14:00;;;;;;;11.70;5.03;;;;;;;;;;7380574;19;20010;-76
2022/06/25 05:16:26;;;;;;;12.50;5.13;;;;;;;;;;7384957;19;20006;-74
2022/06/25 05:18:51;;;;;;;12.48;5.30;;;;;;;;;;7381643;19;20042;-80
2022/06/25 05:21:16;;;;;;;9.00;4.70;;;;;;;;;;7374978;19;20061;-74
2022/06/25 05:23:41;;;;;;;8.57;4.97;;;;;;;;;;7382560;19;20474;-74
2022/06/25 05:26:06;;;;;;;9.17;4.70;;;;;;;;;;7378995;19;20255;-76
2022/06/25 05:28:32;;;;;;;11.63;4.57;;;;;;;;;;7377784;19;20275;-75
2022/06/25 05:30:57;;;;;;;8.83;4.33;;;;;;;;;;7380230;19;20007;-74
2022/06/25 05:33:22;;;;;;;10.88;4.40;;;;;;;;;;7379813;19;20441;-74
2022/06/25 05:35:48;;;;;;;11.10;4.47;;;;;;;;;;7384361;19;20011;-74
2022/06/25 05:38:13;;;;;;;10.82;4.28;;;;;;;;;;7380727;19;20549;-76
2022/06/25 05:40:38;;;;;;;8.97;4.70;;;;;;;;;;7379113;19;20016;-76
2022/06/25 05:43:04;;;;;;;10.55;4.38;;;;;;;;;;7381937;19;20030;-77
2022/06/25 05:45:29;;;;;;;10.20;4.65;;;;;;;;;;7382549;19;20464;-77
2022/06/25 05:47:55;;;;;;;9.07;4.38;;;;;;;;;;7377630;19;20086;-76
2022/06/25 05:50:20;;;;;;;12.00;5.25;;;;;;;;;;7381935;19;20384;-76
2022/06/25 05:52:45;;;;;;;8.32;4.38;;;;;;;;;;7380150;19;20014;-76
2022/06/25 05:55:12;;;;;;;8.00;4.00;;;;;;;;;;7377068;19;20565;-76
2022/06/25 05:57:37;;;;;;;9.18;4.93;;;;;;;;;;7382752;19;20018;-77
2022/06/25 06:00:03;;;;;;;8.97;4.70;;;;;;;;;;7374411;19;20006;-76
2022/06/25 06:02:29;;;;;;;9.88;4.82;;;;;;;;;;7375056;19;20501;-76
2022/06/25 06:04:54;;;;;;;9.33;4.43;;;;;;;;;;7377876;19;20224;-76
2022/06/25 06:07:19;;;;;;;10.20;4.18;;;;;;;;;;7378932;19;20270;-77
2022/06/25 06:09:45;;;;;;;11.70;4.32;;;;;;;;;;7376135;19;20014;-76
2022/06/25 06:12:10;;;;;;;11.98;4.55;;;;;;;;;;7381022;19;20332;-76
2022/06/25 06:14:35;;;;;;;8.48;4.20;;;;;;;;;;7383522;19;20171;-76
2022/06/25 06:17:00;;;;;;;13.10;4.33;;;;;;;;;;7378501;19;20005;-76
2022/06/25 06:19:25;;;;;;;10.87;4.27;;;;;;;;;;7378434;19;20107;-76
2022/06/25 06:21:51;;;;;;;11.63;3.90;;;;;;;;;;7375074;19;20254;-76
2022/06/25 06:24:16;;;;;;;11.85;3.78;;;;;;;;;;7377434;19;20014;-76
2022/06/25 06:26:41;;;;;;;10.57;4.00;;;;;;;;;;7379937;19;19995;-76
2022/06/25 06:29:06;;;;;;;9.03;3.80;;;;;;;;;;7379789;19;20017;-74
2022/06/25 06:31:32;;;;;;;9.63;3.60;;;;;;;;;;7374465;19;20269;-77
2022/06/25 06:33:57;;;;;;;9.35;3.58;;;;;;;;;;7378200;19;20255;-74
2022/06/25 06:36:22;;;;;;;10.82;3.55;;;;;;;;;;7373563;19;20013;-74
2022/06/25 06:38:47;;;;;;;7.85;3.50;;;;;;;;;;7375969;19;20018;-74
2022/06/25 06:41:13;;;;;;;10.27;3.30;;;;;;;;;;7366074;19;20011;-75
2022/06/25 06:43:39;;;;;;;6.68;3.08;;;;;;;;;;7379345;19;20258;-75
2022/06/25 06:46:04;;;;;;;10.02;3.50;;;;;;;;;;7370884;19;20044;-75
2022/06/25 06:48:29;;;;;;;7.10;2.53;;;;;;;;;;7374170;19;20003;-77
2022/06/25 06:50:54;;;;;;;7.32;2.83;;;;;;;;;;7372143;19;20454;-74
2022/06/25 06:53:21;;;;;;;8.50;2.80;;;;;;;;;;7367618;19;20010;-74
2022/06/25 06:55:46;;;;;;;7.05;3.42;;;;;;;;;;7366264;19;20255;-74
2022/06/25 06:58:11;;;;;;;10.83;2.73;;;;;;;;;;7375108;19;20018;-74
2022/06/25 07:00:36;;;;;;;12.37;2.80;;;;;;;;;;7377852;19;20569;-76
2022/06/25 07:03:01;;;;;;;10.33;3.73;;;;;;;;;;7378632;19;20017;-78
2022/06/25 07:05:26;;;;;;;9.10;3.13;;;;;;;;;;7370729;19;20236;-77
2022/06/25 07:07:52;;;;;;;11.70;3.40;;;;;;;;;;7379572;19;20227;-77
2022/06/25 07:10:17;;;;;;;9.63;3.33;;;;;;;;;;7375755;19;20802;-77
2022/06/25 07:12:42;;;;;;;8.68;2.85;;;;;;;;;;7379105;19;20007;-77
2022/06/25 07:15:07;;;;;;;7.37;2.47;;;;;;;;;;7380394;19;20618;-74
2022/06/25 07:17:33;;;;;;;10.50;3.10;;;;;;;;;;7378571;19;20018;-77
2022/06/25 07:19:58;;;;;;;6.85;3.00;;;;;;;;;;7375541;19;20007;-77
2022/06/25 07:22:23;;;;;;;8.25;3.15;;;;;;;;;;7377570;19;20007;-76
2022/06/25 07:24:49;;;;;;;7.68;2.97;;;;;;;;;;7373724;19;20087;-77
2022/06/25 07:27:14;;;;;;;8.05;3.08;;;;;;;;;;7379762;19;20478;-77
2022/06/25 07:29:39;;;;;;;6.55;2.65;;;;;;;;;;7375629;19;20019;-76
2022/06/25 07:32:04;;;;;;;10.37;3.60;;;;;;;;;;7377473;19;20022;-78
2022/06/25 07:34:30;;;;;;;10.52;2.60;;;;;;;;;;7377714;19;20034;-77
2022/06/25 07:36:55;;;;;;;9.90;2.80;;;;;;;;;;7376633;19;20317;-76
2022/06/25 07:39:20;;;;;;;9.65;2.90;;;;;;;;;;7375075;19;20270;-77
2022/06/25 07:41:45;;;;;;;10.13;2.40;;;;;;;;;;7375859;19;20007;-75
2022/06/25 07:44:12;;;;;;;8.67;2.40;;;;;;;;;;7379914;19;20006;-75
2022/06/25 07:46:37;;;;;;;10.10;2.75;;;;;;;;;;7377453;19;20272;-75
2022/06/25 07:49:02;;;;;;;8.68;2.50;;;;;;;;;;7379252;19;20560;-76
2022/06/25 07:54:12;;;;;;;;;;;;;;;;;;7369741;19;20022;-76
2022/06/25 07:56:37;;;;;;;8.93;2.28;;;;;;;;;;7375022;19;19926;-74
2022/06/25 07:59:02;;;;;;;9.57;2.03;;;;;;;;;;7375990;19;19999;-75
2022/06/25 08:01:28;;;;;;;7.53;2.47;;;;;;;;;;7373626;19;20010;-75
2022/06/25 08:03:53;;;;;;;6.80;1.95;;;;;;;;;;7376998;19;20454;-75
2022/06/25 08:06:18;;;;;;;8.97;2.63;;;;;;;;;;7376805;19;20006;-75
2022/06/25 08:08:43;;;;;;;7.47;2.10;;;;;;;;;;7375161;19;20062;-75
2022/06/25 08:11:09;;;;;;;7.23;2.40;;;;;;;;;;7372499;19;20009;-75
2022/06/25 08:13:35;;;;;;;6.28;1.70;;;;;;;;;;7372717;19;20011;-74
2022/06/25 08:16:00;;;;;;;13.27;2.42;;;;;;;;;;7379541;19;20042;-75
2022/06/25 08:18:25;;;;;;;8.33;2.17;;;;;;;;;;7375655;19;20002;-75
2022/06/25 08:20:50;;;;;;;11.52;2.72;;;;;;;;;;7376954;19;20374;-75
2022/06/25 08:23:16;;;;;;;5.87;1.80;;;;;;;;;;7379220;19;20030;-75
2022/06/25 08:25:41;;;;;;;11.98;2.20;;;;;;;;;;7374825;19;20258;-75
2022/06/25 08:28:06;;;;;;;9.93;2.00;;;;;;;;;;7370893;19;20505;-75
2022/06/25 08:30:32;;;;;;;11.98;2.90;;;;;;;;;;7372742;19;20508;-74
2022/06/25 08:32:57;;;;;;;6.88;2.08;;;;;;;;;;7380484;19;20094;-75
2022/06/25 08:35:22;;;;;;;7.43;2.58;;;;;;;;;;7378134;19;20011;-74
2022/06/25 08:37:48;;;;;;;10.88;1.80;;;;;;;;;;7372531;19;20691;-75
2022/06/25 08:40:15;;;;;;;6.22;1.73;;;;;;;;;;7376565;19;19999;-73
2022/06/25 08:42:40;;;;;;;5.82;2.47;;;;;;;;;;7377537;19;20038;-75
2022/06/25 08:45:06;;;;;;;13.88;2.38;;;;;;;;;;7380891;19;19999;-74
2022/06/25 08:47:31;;;;;;;7.53;2.45;;;;;;;;;;7369907;19;20010;-74
2022/06/25 08:49:58;;;;;;;7.88;2.15;;;;;;;;;;7373033;19;20031;-75
2022/06/25 08:52:23;;;;;;;6.32;1.50;;;;;;;;;;7376859;19;20006;-73
2022/06/25 08:54:49;;;;;;;8.75;2.53;;;;;;;;;;7372521;19;20038;-74
2022/06/25 08:57:14;;;;;;;12.23;2.60;;;;;;;;;;7378904;19;20487;-74
2022/06/25 08:59:40;;;;;;;6.05;2.20;;;;;;;;;;7375860;19;20066;-74
2022/06/25 09:02:05;;;;;;;8.13;1.85;;;;;;;;;;7376488;19;20018;-74
2022/06/25 09:04:31;;;;;;;9.98;2.00;;;;;;;;;;7377135;19;20702;-74
2022/06/25 09:07:12;;;;;;;10.73;2.08;;;;;;;;;;7365757;19;20378;-74
2022/06/25 09:09:38;;;;;;;6.38;2.00;;;;;;;;;;7362380;19;20022;-74
2022/06/25 09:12:07;;;;;;;9.32;2.25;;;;;;;;;;7376990;19;20015;-73
2022/06/25 09:14:33;;;;;;;8.68;2.35;;;;;;;;;;7380158;19;20010;-75
2022/06/25 09:17:00;;;;;;;12.38;1.73;;;;;;;;;;7373501;19;20002;-74
2022/06/25 09:19:30;;;;;;;8.07;2.33;;;;;;;;;;7366206;19;20007;-74
2022/06/25 09:21:56;;;;;;;9.23;2.15;;;;;;;;;;7378668;19;20010;-74
2022/06/25 09:24:21;;;;;;;7.03;2.60;;;;;;;;;;7368270;19;20014;-74
2022/06/25 09:26:50;;;;;;;5.90;2.10;;;;;;;;;;7371785;19;20893;-74
2022/06/25 09:29:16;;;;;;;5.10;1.77;;;;;;;;;;7376603;19;20281;-75
2022/06/25 09:31:41;;;;;;;7.85;2.17;;;;;;;;;;7376253;19;20082;-75
2022/06/25 09:34:07;;;;;;;6.03;1.77;;;;;;;;;;7372730;19;20010;-74
2022/06/25 09:36:32;;;;;;;7.57;2.03;;;;;;;;;;7373519;19;20348;-74
2022/06/25 09:38:57;;;;;;;7.65;1.70;;;;;;;;;;7375699;19;20033;-74
2022/06/25 09:41:23;;;;;;;6.40;1.88;;;;;;;;;;7370072;19;20002;-74
2022/06/25 09:43:49;;;;;;;9.90;2.40;;;;;;;;;;7370796;19;20013;-74
2022/06/25 09:46:14;;;;;;;10.65;1.92;;;;;;;;;;7378374;19;20010;-73
2022/06/25 09:48:40;;;;;;;9.30;1.80;;;;;;;;;;7376552;19;20014;-74
2022/06/25 09:51:09;;;;;;;6.65;2.00;;;;;;;;;;7368859;19;20473;-74
2022/06/25 09:53:34;;;;;;;7.75;2.20;;;;;;;;;;7371810;19;20431;-74
2022/06/25 09:56:02;;;;;;;11.88;2.28;;;;;;;;;;7365678;19;20022;-74
2022/06/25 09:58:28;;;;;;;8.55;2.17;;;;;;;;;;7371155;19;19999;-75
2022/06/25 10:00:54;;;;;;;7.22;2.58;;;;;;;;;;7378909;19;20014;-74
2022/06/25 10:03:20;;;;;;;10.63;2.00;;;;;;;;;;7380854;19;20017;-74
2022/06/25 10:05:46;;;;;;;6.97;2.10;;;;;;;;;;7379626;19;20336;-74
2022/06/25 10:08:12;;;;;;;7.95;1.92;;;;;;;;;;7383738;19;20014;-74
2022/06/25 10:10:42;;;;;;;6.65;1.67;;;;;;;;;;7378810;19;20273;-74
2022/06/25 10:13:08;;;;;;;6.07;1.88;;;;;;;;;;7385540;19;20466;-74
2022/06/25 10:15:33;;;;;;;7.18;1.90;;;;;;;;;;7386031;19;20039;-74
2022/06/25 10:18:03;;;;;;;12.48;2.40;;;;;;;;;;7381378;19;20011;-74
2022/06/25 10:20:28;;;;;;;6.78;1.90;;;;;;;;;;7381486;19;20050;-74
2022/06/25 10:22:54;;;;;;;7.75;2.05;;;;;;;;;;7373140;19;20389;-75
2022/06/25 10:25:22;;;;;;;9.68;2.10;;;;;;;;;;7378151;19;20017;-76
2022/06/25 10:27:48;;;;;;;7.38;1.95;;;;;;;;;;7378890;19;20015;-74
2022/06/25 10:30:14;;;;;;;5.57;1.75;;;;;;;;;;7378037;19;20409;-76
2022/06/25 10:32:43;;;;;;;8.80;1.95;;;;;;;;;;7381646;19;20006;-74
2022/06/25 10:35:08;;;;;;;8.20;1.77;;;;;;;;;;7379265;19;20460;-74
2022/06/25 10:37:52;;;;;;;5.53;1.60;;;;;;;;;;7378839;19;20042;-74
2022/06/25 10:40:17;;;;;;;6.60;1.85;;;;;;;;;;7374597;19;20807;-74
2022/06/25 10:43:01;;;;;;;5.50;2.07;;;;;;;;;;7376303;19;19998;-74
2022/06/25 10:45:26;;;;;;;6.30;2.20;;;;;;;;;;7381976;19;20262;-74
2022/06/25 10:47:58;;;;;;;5.07;1.60;;;;;;;;;;7380813;19;20280;-74
2022/06/25 10:50:24;;;;;;;7.97;2.13;;;;;;;;;;7370398;19;20503;-74
2022/06/25 10:53:05;;;;;;;5.80;2.17;;;;;;;;;;7377254;19;20054;-74
2022/06/25 10:55:33;;;;;;;8.63;1.60;;;;;;;;;;7376829;19;20006;-74
2022/06/25 10:58:14;;;;;;;4.38;1.52;;;;;;;;;;7381226;19;20023;-74
2022/06/25 11:00:51;;;;;;;5.20;1.70;;;;;;;;;;7364181;19;20015;-74
2022/06/25 11:03:17;;;;;;;5.05;1.63;;;;;;;;;;7376098;19;19995;-74
2022/06/25 11:05:43;;;;;;;6.10;1.50;;;;;;;;;;7372221;19;20095;-74
2022/06/25 11:08:09;;;;;;;5.68;1.40;;;;;;;;;;7370523;19;20406;-74
2022/06/25 11:10:35;;;;;;;10.10;1.77;;;;;;;;;;7355952;19;20022;-74
2022/06/25 11:13:01;;;;;;;6.40;1.55;;;;;;;;;;7354405;19;20352;-74
2022/06/25 11:15:38;;;;;;;6.60;1.55;;;;;;;;;;7361468;19;20023;-74
2022/06/25 11:18:06;;;;;;;6.20;1.77;;;;;;;;;;7361936;19;20090;-74
2022/06/25 11:20:31;;;;;;;6.63;1.50;;;;;;;;;;7365472;19;20111;-74
2022/06/25 11:22:56;;;;;;;10.57;2.10;;;;;;;;;;7364669;19;20006;-74
2022/06/25 22:02:56;;;;;;;6.95;2.53;;;;;;;;;;7328820;19;19940;-76
2022/06/25 22:05:21;;;;;;;9.25;3.03;;;;;;;;;;7366655;19;20358;-76
2022/06/25 22:07:47;;;;;;;7.55;2.97;;;;;;;;;;7378020;19;20106;-76
2022/06/25 22:10:12;;;;;;;8.90;3.70;;;;;;;;;;7371873;19;20006;-76
2022/06/25 22:12:37;;;;;;;7.50;2.83;;;;;;;;;;7378936;19;20014;-77
2022/06/25 22:15:03;;;;;;;6.97;2.95;;;;;;;;;;7374497;19;20034;-77
2022/06/25 22:17:28;;;;;;;7.57;3.20;;;;;;;;;;7360465;19;20428;-76
2022/06/25 22:19:53;;;;;;;8.00;2.60;;;;;;;;;;7376515;19;19998;-77
2022/06/25 22:22:18;;;;;;;5.88;2.63;;;;;;;;;;7378590;19;20283;-77
2022/06/25 22:24:44;;;;;;;9.80;3.00;;;;;;;;;;7373447;19;20018;-76
2022/06/25 22:27:09;;;;;;;4.60;2.40;;;;;;;;;;7377815;19;20051;-77
2022/06/25 22:29:34;;;;;;;12.52;2.97;;;;;;;;;;7379013;19;20010;-76
2022/06/25 22:31:59;;;;;;;7.72;2.67;;;;;;;;;;7374608;19;20475;-76
2022/06/25 22:34:25;;;;;;;5.90;2.53;;;;;;;;;;7361948;19;20082;-76
2022/06/25 22:36:50;;;;;;;6.77;2.97;;;;;;;;;;7375361;19;20006;-77
2022/06/25 22:39:15;;;;;;;10.93;2.87;;;;;;;;;;7371820;19;20243;-77
2022/06/25 22:41:40;;;;;;;12.40;3.20;;;;;;;;;;7375737;19;20336;-76
2022/06/25 22:44:05;;;;;;;6.40;2.50;;;;;;;;;;7380263;19;20006;-76
2022/06/25 22:46:31;;;;;;;5.57;2.58;;;;;;;;;;7375578;19;20070;-76
2022/06/25 22:48:56;;;;;;;7.37;2.67;;;;;;;;;;7374010;19;20002;-77
2022/06/25 22:51:21;;;;;;;10.10;3.00;;;;;;;;;;7375825;19;20355;-76
2022/06/25 22:53:46;;;;;;;8.73;2.60;;;;;;;;;;7377780;19;20355;-76
2022/06/25 22:56:11;;;;;;;5.07;2.40;;;;;;;;;;7375761;19;20011;-77
2022/06/25 22:58:37;;;;;;;5.82;3.05;;;;;;;;;;7374269;19;20254;-77
2022/06/25 23:01:02;;;;;;;10.98;3.05;;;;;;;;;;7377438;19;20195;-77
2022/06/25 23:03:27;;;;;;;9.17;2.83;;;;;;;;;;7375013;19;20425;-76
2022/06/25 23:05:53;;;;;;;10.53;2.57;;;;;;;;;;7368387;19;20276;-76
2022/06/25 23:08:18;;;;;;;6.03;2.47;;;;;;;;;;7368618;19;20801;-75
2022/06/25 23:10:43;;;;;;;5.82;2.10;;;;;;;;;;7368605;19;20047;-75
2022/06/25 23:13:08;;;;;;;6.07;2.23;;;;;;;;;;7373676;19;20002;-75
2022/06/25 23:15:34;;;;;;;6.55;2.97;;;;;;;;;;7375640;19;20014;-75
2022/06/25 23:17:59;;;;;;;7.65;2.45;;;;;;;;;;7367898;19;19999;-74
2022/06/25 23:20:25;;;;;;;5.60;2.43;;;;;;;;;;7373664;19;20013;-75
2022/06/25 23:22:50;;;;;;;7.82;3.05;;;;;;;;;;7376431;19;20303;-75
2022/06/25 23:25:16;;;;;;;7.70;2.45;;;;;;;;;;7372429;19;20043;-75
2022/06/25 23:27:41;;;;;;;6.05;2.22;;;;;;;;;;7376240;19;20019;-75
2022/06/25 23:30:07;;;;;;;6.53;2.40;;;;;;;;;;7374685;19;20421;-75
2022/06/25 23:32:33;;;;;;;4.55;2.22;;;;;;;;;;7375783;19;19999;-76
2022/06/25 23:34:58;;;;;;;7.32;2.60;;;;;;;;;;7373353;19;20351;-75
2022/06/25 23:37:23;;;;;;;5.37;2.50;;;;;;;;;;7378632;19;20002;-75
2022/06/25 23:39:48;;;;;;;6.90;2.70;;;;;;;;;;7378007;19;20249;-75
2022/06/25 23:42:14;;;;;;;7.60;2.70;;;;;;;;;;7380679;19;20011;-75
2022/06/25 23:44:39;;;;;;;6.70;3.10;;;;;;;;;;7381335;19;20062;-75
2022/06/25 23:47:05;;;;;;;6.68;3.30;;;;;;;;;;7378686;19;20363;-74
2022/06/25 23:49:30;;;;;;;7.40;3.10;;;;;;;;;;7375248;19;20010;-75
2022/06/25 23:51:55;;;;;;;6.68;2.95;;;;;;;;;;7379650;19;20680;-75
2022/06/25 23:54:21;;;;;;;6.27;3.17;;;;;;;;;;7375495;19;20062;-75
2022/06/25 23:56:46;;;;;;;6.73;3.10;;;;;;;;;;7380103;19;20327;-75
2022/06/25 23:59:11;;;;;;;6.73;3.10;;;;;;;;;;7381177;19;20365;-74
